createdAt,value
2022-10-28T00:01:16.030Z,11.34
2022-10-28T00:03:49.535Z,11.34
2022-10-28T00:06:19.353Z,11.30
2022-10-28T00:08:46.280Z,11.28
2022-10-28T00:11:19.998Z,11.42
2022-10-28T00:13:47.706Z,11.41
2022-10-28T00:16:21.033Z,11.40
2022-10-28T00:18:48.989Z,11.48
2022-10-28T00:21:24.346Z,11.40
2022-10-28T00:23:51.365Z,11.22
2022-10-28T00:26:21.146Z,11.37
2022-10-28T00:28:52.343Z,11.39
2022-10-28T00:31:20.833Z,11.55
2022-10-28T00:33:47.593Z,11.74
2022-10-28T00:36:16.304Z,11.85
2022-10-28T00:38:45.026Z,11.80
2022-10-28T00:41:15.185Z,11.55
2022-10-28T00:43:46.385Z,11.63
2022-10-28T00:46:28.904Z,11.55
2022-10-28T00:49:22.886Z,11.71
2022-10-28T00:51:54.054Z,11.64
2022-10-28T00:54:21.736Z,11.44
2022-10-28T00:56:51.720Z,11.48
2022-10-28T00:59:40.171Z,11.65
2022-10-28T01:02:07.075Z,11.54
2022-10-28T01:04:34.046Z,11.69
2022-10-28T01:07:01.990Z,11.75
2022-10-28T01:09:28.967Z,11.53
2022-10-28T01:12:07.724Z,11.48
2022-10-28T01:14:59.256Z,11.27
2022-10-28T01:18:04.913Z,11.25
2022-10-28T01:21:09.326Z,11.17
2022-10-28T01:24:12.112Z,11.25
2022-10-28T01:26:56.285Z,11.28
2022-10-28T01:29:55.330Z,11.42
2022-10-28T01:32:41.215Z,11.52
2022-10-28T01:35:33.688Z,11.53
2022-10-28T01:38:21.059Z,11.51
2022-10-28T01:41:03.027Z,11.53
2022-10-28T01:43:45.284Z,11.57
2022-10-28T01:46:17.488Z,11.58
2022-10-28T01:48:47.184Z,11.57
2022-10-28T01:51:25.622Z,11.44
2022-10-28T01:53:55.847Z,11.39
2022-10-28T01:56:28.300Z,11.38
2022-10-28T01:58:59.248Z,11.39
2022-10-28T02:01:28.861Z,11.33
2022-10-28T02:03:56.822Z,11.34
2022-10-28T02:06:27.667Z,11.43
2022-10-28T02:09:07.848Z,11.50
2022-10-28T02:12:22.047Z,11.47
2022-10-28T02:14:49.021Z,11.48
2022-10-28T02:17:38.671Z,10.57
2022-10-28T02:20:38.728Z,11.48
2022-10-28T02:23:14.059Z,11.50
2022-10-28T02:25:52.801Z,11.35
2022-10-28T02:28:41.177Z,11.18
2022-10-28T02:31:19.811Z,11.23
2022-10-28T02:33:52.569Z,11.28
2022-10-28T02:36:22.345Z,11.31
2022-10-28T02:38:53.124Z,11.31
2022-10-28T02:41:22.543Z,11.46
2022-10-28T02:43:53.696Z,11.45
2022-10-28T02:46:22.785Z,11.44
2022-10-28T02:48:54.697Z,11.57
2022-10-28T02:51:30.495Z,11.60
2022-10-28T02:54:11.777Z,11.56
2022-10-28T02:56:50.049Z,11.39
2022-10-28T02:59:17.058Z,11.25
2022-10-28T03:01:43.804Z,11.30
2022-10-28T03:04:10.742Z,11.39
2022-10-28T03:06:37.428Z,11.50
2022-10-28T03:09:04.160Z,11.37
2022-10-28T03:11:30.996Z,11.19
2022-10-28T03:13:57.706Z,11.35
2022-10-28T03:16:24.435Z,11.47
2022-10-28T03:18:51.077Z,11.48
2022-10-28T03:21:17.793Z,11.64
2022-10-28T03:23:44.486Z,11.78
2022-10-28T03:26:11.229Z,11.76
2022-10-28T03:28:38.051Z,11.74
2022-10-28T03:31:05.420Z,11.80
2022-10-28T03:33:32.270Z,11.82
2022-10-28T03:35:59.099Z,11.81
2022-10-28T03:38:36.435Z,11.88
2022-10-28T03:41:03.309Z,11.69
2022-10-28T03:43:33.380Z,11.36
2022-10-28T03:46:02.756Z,11.23
2022-10-28T03:48:29.524Z,11.33
2022-10-28T03:50:56.240Z,11.19
2022-10-28T03:53:26.330Z,10.90
2022-10-28T03:55:59.702Z,10.80
2022-10-28T03:58:27.330Z,10.83
2022-10-28T04:00:55.609Z,10.76
2022-10-28T04:03:23.630Z,10.73
2022-10-28T04:05:50.421Z,10.76
2022-10-28T04:08:18.246Z,10.80
2022-10-28T04:13:39.277Z,10.79
2022-10-28T04:16:06.854Z,10.83
2022-10-28T04:18:35.429Z,10.85
2022-10-28T04:21:03.594Z,10.88
2022-10-28T04:23:30.345Z,10.89
2022-10-28T04:25:57.049Z,10.88
2022-10-28T04:28:26.780Z,10.87
2022-10-28T04:30:53.455Z,10.80
2022-10-28T04:33:20.211Z,10.82
2022-10-28T04:35:47.099Z,10.97
2022-10-28T04:38:15.478Z,11.06
2022-10-28T04:40:42.313Z,11.18
2022-10-28T04:43:10.437Z,11.07
2022-10-28T04:45:38.062Z,11.06
2022-10-28T04:48:05.073Z,11.07
2022-10-28T04:50:31.948Z,11.03
2022-10-28T04:52:58.794Z,11.04
2022-10-28T04:55:25.503Z,10.72
2022-10-28T04:57:56.617Z,10.78
2022-10-28T05:00:25.183Z,10.72
2022-10-28T05:02:52.153Z,10.53
2022-10-28T05:05:19.366Z,10.59
2022-10-28T05:07:46.829Z,10.52
2022-10-28T05:10:18.275Z,10.86
2022-10-28T05:12:46.367Z,10.65
2022-10-28T05:15:14.501Z,10.81
2022-10-28T05:17:45.285Z,10.89
2022-10-28T05:20:14.286Z,10.87
2022-10-28T05:22:53.898Z,10.76
2022-10-28T05:25:21.625Z,10.75
2022-10-28T05:27:48.555Z,10.58
2022-10-28T05:30:15.585Z,10.57
2022-10-28T05:32:42.505Z,10.73
2022-10-28T05:35:09.685Z,11.11
2022-10-28T05:37:36.552Z,11.23
2022-10-28T05:40:04.403Z,11.30
2022-10-28T05:42:31.090Z,11.41
2022-10-28T05:44:57.804Z,11.44
2022-10-28T05:47:24.616Z,11.45
2022-10-28T05:49:51.392Z,11.33
2022-10-28T05:52:18.262Z,11.49
2022-10-28T05:54:45.328Z,11.17
2022-10-28T05:57:12.031Z,10.89
2022-10-28T05:59:38.738Z,10.69
2022-10-28T06:02:05.532Z,10.81
2022-10-28T06:04:33.364Z,11.36
2022-10-28T06:07:00.092Z,11.70
2022-10-28T06:09:28.756Z,12.73
2022-10-28T06:11:53.995Z,13.34
2022-10-28T06:14:20.721Z,14.02
2022-10-28T06:16:47.410Z,15.07
2022-10-28T06:19:14.196Z,16.09
2022-10-28T06:21:40.930Z,15.33
2022-10-28T06:24:12.094Z,14.76
2022-10-28T06:26:39.588Z,15.59
2022-10-28T06:29:09.683Z,15.51
2022-10-28T06:31:40.773Z,16.28
2022-10-28T06:34:09.067Z,16.57
2022-10-28T06:36:35.997Z,15.13
2022-10-28T06:39:03.267Z,14.03
2022-10-28T06:41:30.218Z,14.21
2022-10-28T06:43:56.931Z,13.88
2022-10-28T06:46:23.641Z,13.46
2022-10-28T06:48:54.304Z,13.33
2022-10-28T06:51:21.479Z,12.76
2022-10-28T06:53:52.299Z,12.83
2022-10-28T06:56:19.044Z,12.66
2022-10-28T06:58:50.893Z,13.15
2022-10-28T07:01:18.112Z,12.99
2022-10-28T07:03:45.057Z,13.02
2022-10-28T07:06:11.885Z,12.85
2022-10-28T07:08:38.563Z,12.59
2022-10-28T07:11:05.477Z,12.82
2022-10-28T07:13:32.213Z,12.73
2022-10-28T07:16:00.406Z,12.69
2022-10-28T07:18:29.706Z,12.86
2022-10-28T07:21:00.907Z,12.84
2022-10-28T07:23:28.600Z,13.29
2022-10-28T07:25:56.509Z,13.80
2022-10-28T07:28:25.467Z,13.75
2022-10-28T07:30:52.611Z,14.04
2022-10-28T07:33:19.338Z,14.33
2022-10-28T07:35:46.231Z,14.36
2022-10-28T07:41:09.477Z,14.74
2022-10-28T07:43:39.473Z,15.12
2022-10-28T07:46:07.311Z,15.20
2022-10-28T07:48:35.400Z,15.20
2022-10-28T07:51:04.695Z,15.49
2022-10-28T07:53:31.953Z,15.61
2022-10-28T07:56:01.249Z,15.99
2022-10-28T07:58:28.795Z,15.92
2022-10-28T08:00:55.777Z,15.65
2022-10-28T08:03:31.108Z,15.90
2022-10-28T08:06:09.752Z,17.03
2022-10-28T08:08:37.360Z,17.01
2022-10-28T08:11:22.641Z,17.13
2022-10-28T08:13:50.343Z,16.98
2022-10-28T08:16:17.486Z,17.32
2022-10-28T08:18:45.860Z,17.58
2022-10-28T08:21:13.668Z,18.24
2022-10-28T08:23:46.510Z,18.15
2022-10-28T08:26:15.294Z,18.63
2022-10-28T08:28:42.758Z,18.61
2022-10-28T08:31:12.736Z,18.22
2022-10-28T08:33:45.923Z,18.45
2022-10-28T08:36:16.330Z,18.99
2022-10-28T08:38:45.754Z,19.08
2022-10-28T08:41:40.672Z,18.47
2022-10-28T08:44:37.877Z,17.67
2022-10-28T08:47:32.693Z,19.23
2022-10-28T08:50:12.556Z,20.02
2022-10-28T08:52:52.087Z,19.82
2022-10-28T08:55:31.094Z,20.46
2022-10-28T08:58:03.783Z,20.06
2022-10-28T09:00:34.106Z,20.41
2022-10-28T09:03:13.220Z,20.79
2022-10-28T09:05:42.866Z,21.42
2022-10-28T09:08:18.595Z,21.59
2022-10-28T09:11:03.993Z,21.66
2022-10-28T09:14:02.115Z,22.49
2022-10-28T09:16:45.851Z,22.58
2022-10-28T09:19:35.813Z,22.16
2022-10-28T09:22:19.956Z,23.00
2022-10-28T09:24:52.846Z,22.51
2022-10-28T09:27:26.311Z,22.34
2022-10-28T09:30:18.098Z,22.92
2022-10-28T09:32:44.765Z,22.58
2022-10-28T09:35:17.114Z,22.68
2022-10-28T09:37:51.091Z,23.67
2022-10-28T09:40:25.283Z,24.30
2022-10-28T09:43:01.135Z,24.32
2022-10-28T09:45:31.983Z,23.00
2022-10-28T09:48:05.700Z,22.79
2022-10-28T09:50:33.254Z,23.18
2022-10-28T09:53:20.634Z,23.58
2022-10-28T09:55:47.445Z,23.85
2022-10-28T09:58:14.106Z,24.34
2022-10-28T10:00:41.452Z,24.91
2022-10-28T10:03:08.631Z,25.18
2022-10-28T10:05:42.598Z,25.02
2022-10-28T10:08:15.342Z,24.79
2022-10-28T10:10:51.213Z,24.21
2022-10-28T10:13:23.116Z,25.28
2022-10-28T10:15:54.979Z,25.49
2022-10-28T10:18:35.524Z,24.36
2022-10-28T10:21:04.256Z,24.32
2022-10-28T10:23:36.968Z,23.43
2022-10-28T10:26:13.995Z,24.39
2022-10-28T10:28:51.622Z,25.03
2022-10-28T10:31:25.619Z,25.30
2022-10-28T10:33:55.631Z,25.01
2022-10-28T10:36:28.456Z,24.05
2022-10-28T10:38:57.611Z,24.11
2022-10-28T10:41:41.913Z,24.14
2022-10-28T10:44:20.633Z,25.68
2022-10-28T10:47:07.519Z,24.31
2022-10-28T10:49:35.606Z,25.22
2022-10-28T10:52:14.919Z,26.14
2022-10-28T10:54:55.935Z,26.24
2022-10-28T10:57:23.887Z,25.62
2022-10-28T10:59:54.152Z,26.14
2022-10-28T11:02:39.881Z,26.30
2022-10-28T11:05:09.972Z,25.89
2022-10-28T11:07:40.615Z,26.36
2022-10-28T11:10:22.371Z,24.24
2022-10-28T11:12:57.995Z,24.96
2022-10-28T11:15:28.348Z,25.16
2022-10-28T11:17:58.758Z,23.43
2022-10-28T11:20:28.504Z,23.52
2022-10-28T11:23:00.364Z,23.78
2022-10-28T11:25:35.310Z,24.91
2022-10-28T11:28:22.199Z,24.14
2022-10-28T11:31:19.252Z,24.15
2022-10-28T11:33:45.900Z,24.13
2022-10-28T11:36:34.394Z,24.27
2022-10-28T11:39:20.167Z,25.71
2022-10-28T11:42:00.288Z,25.12
2022-10-28T11:44:42.250Z,25.38
2022-10-28T11:47:28.978Z,24.86
2022-10-28T11:50:01.807Z,24.52
2022-10-28T11:52:52.624Z,23.54
2022-10-28T11:55:42.596Z,24.29
2022-10-28T11:58:37.312Z,25.12
2022-10-28T12:01:31.815Z,25.44
2022-10-28T12:04:20.662Z,25.79
2022-10-28T12:07:05.037Z,26.69
2022-10-28T12:09:54.148Z,26.31
2022-10-28T12:12:36.348Z,25.06
2022-10-28T12:15:21.904Z,24.34
2022-10-28T12:18:02.043Z,24.26
2022-10-28T12:20:37.195Z,24.82
2022-10-28T12:23:12.193Z,25.26
2022-10-28T12:25:42.890Z,25.02
2022-10-28T12:28:26.463Z,25.02
2022-10-28T12:30:55.104Z,23.65
2022-10-28T12:33:32.583Z,23.32
2022-10-28T12:36:05.403Z,23.15
2022-10-28T12:38:57.374Z,23.16
2022-10-28T12:41:27.366Z,23.49
2022-10-28T12:44:10.058Z,23.26
2022-10-28T12:47:00.502Z,23.57
2022-10-28T12:49:36.588Z,24.27
2022-10-28T12:52:14.039Z,24.46
2022-10-28T12:55:03.893Z,25.68
2022-10-28T12:57:34.551Z,25.70
2022-10-28T13:00:42.189Z,26.42
2022-10-28T13:03:13.439Z,25.07
2022-10-28T13:05:46.343Z,24.86
2022-10-28T13:08:47.011Z,25.24
2022-10-28T13:11:19.864Z,24.94
2022-10-28T13:14:10.785Z,24.31
2022-10-28T13:16:40.478Z,23.38
2022-10-28T13:19:25.537Z,23.14
2022-10-28T13:22:04.155Z,22.77
2022-10-28T13:24:46.427Z,22.91
2022-10-28T13:27:14.781Z,23.02
2022-10-28T13:29:44.129Z,23.17
2022-10-28T13:32:34.230Z,22.87
2022-10-28T13:35:23.084Z,23.36
2022-10-28T13:37:53.096Z,23.52
2022-10-28T13:40:39.807Z,23.10
2022-10-28T13:43:20.165Z,23.35
2022-10-28T13:45:56.825Z,23.56
2022-10-28T13:48:29.739Z,23.35
2022-10-28T13:51:11.867Z,23.64
2022-10-28T13:53:41.985Z,23.68
2022-10-28T13:56:30.315Z,22.73
2022-10-28T13:59:15.805Z,22.45
2022-10-28T14:04:57.661Z,22.17
2022-10-28T14:07:29.037Z,22.13
2022-10-28T14:10:00.168Z,21.90
2022-10-28T14:12:26.729Z,21.83
2022-10-28T14:15:04.898Z,21.64
2022-10-28T14:17:37.826Z,21.65
2022-10-28T14:20:10.442Z,21.40
2022-10-28T14:22:37.441Z,21.49
2022-10-28T14:25:43.713Z,21.67
2022-10-28T14:28:31.617Z,21.39
2022-10-28T14:31:14.577Z,21.66
2022-10-28T14:33:44.254Z,21.44
2022-10-28T14:36:52.192Z,21.32
2022-10-28T14:39:33.882Z,21.18
2022-10-28T14:42:00.549Z,21.13
2022-10-28T14:44:42.070Z,20.98
2022-10-28T14:47:49.856Z,20.69
2022-10-28T14:50:22.691Z,20.65
2022-10-28T14:52:52.306Z,20.52
2022-10-28T14:55:30.653Z,20.27
2022-10-28T14:58:23.595Z,20.15
2022-10-28T15:01:18.565Z,19.90
2022-10-28T15:03:48.164Z,19.89
2022-10-28T15:06:39.329Z,20.05
2022-10-28T15:09:22.861Z,19.71
2022-10-28T15:12:14.063Z,19.73
2022-10-28T15:14:45.786Z,19.47
2022-10-28T15:17:39.392Z,19.09
2022-10-28T15:20:32.646Z,19.24
2022-10-28T15:23:12.863Z,19.24
2022-10-28T15:25:39.775Z,19.11
2022-10-28T15:28:06.497Z,18.92
2022-10-28T15:30:34.853Z,18.57
2022-10-28T15:33:21.454Z,18.55
2022-10-28T15:35:49.668Z,18.28
2022-10-28T15:38:25.614Z,18.34
2022-10-28T15:40:52.475Z,18.10
2022-10-28T15:43:23.855Z,18.12
2022-10-28T15:45:51.092Z,18.07
2022-10-28T15:48:24.272Z,18.06
2022-10-28T15:51:17.006Z,17.83
2022-10-28T15:53:54.816Z,17.72
2022-10-28T15:56:29.688Z,17.78
2022-10-28T15:58:59.302Z,17.57
2022-10-28T16:01:37.825Z,17.45
2022-10-28T16:04:22.868Z,17.56
2022-10-28T16:06:54.842Z,17.44
2022-10-28T16:09:34.320Z,17.28
2022-10-28T16:12:03.849Z,17.13
2022-10-28T16:14:38.254Z,17.08
2022-10-28T16:17:24.576Z,16.86
2022-10-28T16:19:53.060Z,16.64
2022-10-28T16:22:21.299Z,16.57
2022-10-28T16:24:49.861Z,16.49
2022-10-28T16:27:16.428Z,16.35
2022-10-28T16:29:43.205Z,15.99
2022-10-28T16:32:12.522Z,15.87
2022-10-28T16:34:39.651Z,15.87
2022-10-28T16:37:16.275Z,15.76
2022-10-28T16:39:42.962Z,15.76
2022-10-28T16:42:09.609Z,15.80
2022-10-28T16:44:36.585Z,15.68
2022-10-28T16:47:13.669Z,15.55
2022-10-28T16:49:41.252Z,15.40
2022-10-28T16:52:20.654Z,15.23
2022-10-28T16:54:47.604Z,15.20
2022-10-28T16:57:15.147Z,15.04
2022-10-28T16:59:42.080Z,15.04
2022-10-28T17:02:20.017Z,14.86
2022-10-28T17:04:48.970Z,14.77
2022-10-28T17:07:19.918Z,14.44
2022-10-28T17:09:46.685Z,14.42
2022-10-28T17:12:16.437Z,14.50
2022-10-28T17:14:43.289Z,14.51
2022-10-28T17:17:10.796Z,14.41
2022-10-28T17:19:38.696Z,14.25
2022-10-28T17:22:09.059Z,14.08
2022-10-28T17:24:36.815Z,14.00
2022-10-28T17:27:04.160Z,13.94
2022-10-28T17:29:31.477Z,14.06
2022-10-28T17:31:59.562Z,14.07
2022-10-28T17:34:26.477Z,14.02
2022-10-28T17:36:53.208Z,14.08
2022-10-28T17:39:25.645Z,13.87
2022-10-28T17:41:52.688Z,13.95
2022-10-28T17:44:19.489Z,14.03
2022-10-28T17:46:49.903Z,13.93
2022-10-28T17:49:16.838Z,13.92
2022-10-28T17:51:43.731Z,13.88
2022-10-28T17:54:10.854Z,13.82
2022-10-28T17:56:39.329Z,13.82
2022-10-28T17:59:06.300Z,13.75
2022-10-28T18:01:34.760Z,13.69
2022-10-28T18:04:03.790Z,13.55
2022-10-28T18:06:30.629Z,13.47
2022-10-28T18:09:00.975Z,13.51
2022-10-28T18:11:27.763Z,13.56
2022-10-28T18:13:56.395Z,13.41
2022-10-28T18:16:27.681Z,13.19
2022-10-28T18:18:55.593Z,13.23
2022-10-28T18:21:24.458Z,13.31
2022-10-28T18:24:03.883Z,13.53
2022-10-28T18:26:33.022Z,13.50
2022-10-28T18:29:03.950Z,13.44
2022-10-28T18:31:33.061Z,13.42
2022-10-28T18:34:01.186Z,13.41
2022-10-28T18:36:30.828Z,13.28
2022-10-28T18:38:57.889Z,13.36
2022-10-28T18:41:27.028Z,13.33
2022-10-28T18:43:58.494Z,13.33
2022-10-28T18:46:26.012Z,13.28
2022-10-28T18:48:53.229Z,13.29
2022-10-28T18:51:20.668Z,13.28
2022-10-28T18:53:49.027Z,13.24
2022-10-28T18:56:18.749Z,13.02
2022-10-28T18:58:49.352Z,13.04
2022-10-28T19:01:19.389Z,13.19
2022-10-28T19:03:48.289Z,13.15
2022-10-28T19:06:16.490Z,13.43
2022-10-28T19:08:43.768Z,13.43
2022-10-28T19:11:12.547Z,13.18
2022-10-28T19:13:41.669Z,13.27
2022-10-28T19:16:08.911Z,13.33
2022-10-28T19:18:38.331Z,13.29
2022-10-28T19:21:07.577Z,13.09
2022-10-28T19:23:34.862Z,13.04
2022-10-28T19:26:01.991Z,12.86
2022-10-28T19:28:28.732Z,12.86
2022-10-28T19:31:02.865Z,13.00
2022-10-28T19:33:31.154Z,13.05
2022-10-28T19:36:03.069Z,12.67
2022-10-28T19:38:37.321Z,12.84
2022-10-28T19:41:06.662Z,12.80
2022-10-28T19:43:33.775Z,12.80
2022-10-28T19:46:10.668Z,12.82
2022-10-28T19:48:38.878Z,12.67
2022-10-28T19:51:05.947Z,12.88
2022-10-28T19:53:32.769Z,12.78
2022-10-28T19:56:01.687Z,12.89
2022-10-28T19:58:29.945Z,12.54
2022-10-28T20:01:01.929Z,12.73
2022-10-28T20:03:33.053Z,12.68
2022-10-28T20:06:13.764Z,12.50
2022-10-28T20:08:43.860Z,12.42
2022-10-28T20:11:24.933Z,12.55
2022-10-28T20:13:54.953Z,12.55
2022-10-28T20:16:22.585Z,12.45
2022-10-28T20:18:49.435Z,12.65
2022-10-28T20:21:18.832Z,12.60
2022-10-28T20:23:47.682Z,12.65
2022-10-28T20:26:14.422Z,12.55
2022-10-28T20:28:41.399Z,12.69
2022-10-28T20:31:13.307Z,12.77
2022-10-28T20:33:42.665Z,12.76
2022-10-28T20:36:29.026Z,12.89
2022-10-28T20:38:59.813Z,12.92
2022-10-28T20:41:28.668Z,13.02
2022-10-28T20:43:55.751Z,13.26
2022-10-28T20:46:23.959Z,13.20
2022-10-28T20:48:54.123Z,13.06
2022-10-28T20:51:21.538Z,13.26
2022-10-28T20:53:48.359Z,13.24
2022-10-28T20:56:24.037Z,13.42
2022-10-28T20:58:51.495Z,13.37
2022-10-28T21:01:23.800Z,13.47
2022-10-28T21:03:54.174Z,13.55
2022-10-28T21:06:21.042Z,13.56
2022-10-28T21:08:48.156Z,13.58
2022-10-28T21:11:16.856Z,13.48
2022-10-28T21:13:45.201Z,13.39
2022-10-28T21:16:13.019Z,13.21
2022-10-28T21:18:41.370Z,13.17
2022-10-28T21:21:08.065Z,13.11
2022-10-28T21:23:34.735Z,13.25
2022-10-28T21:26:03.874Z,13.27
2022-10-28T21:28:32.430Z,13.23
2022-10-28T21:31:04.858Z,13.11
2022-10-28T21:33:33.489Z,13.12
2022-10-28T21:36:03.246Z,13.06
2022-10-28T21:38:30.206Z,13.16
2022-10-28T21:41:15.568Z,13.15
2022-10-28T21:43:44.574Z,13.13
2022-10-28T21:46:11.672Z,13.04
2022-10-28T21:48:38.875Z,13.09
2022-10-28T21:51:13.392Z,13.21
2022-10-28T21:53:42.588Z,13.17
2022-10-28T21:56:16.519Z,13.28
2022-10-28T21:58:43.703Z,13.24
2022-10-28T22:01:11.878Z,13.24
2022-10-28T22:03:38.771Z,13.31
2022-10-28T22:06:06.106Z,13.63
2022-10-28T22:08:33.035Z,13.61
2022-10-28T22:11:06.865Z,13.51
2022-10-28T22:13:34.619Z,13.39
2022-10-28T22:16:07.029Z,13.51
2022-10-28T22:18:35.542Z,13.46
2022-10-28T22:21:33.618Z,13.49
2022-10-28T22:24:00.500Z,13.24
2022-10-28T22:26:30.050Z,13.27
2022-10-28T22:28:57.306Z,13.24
2022-10-28T22:31:26.936Z,13.28
2022-10-28T22:33:53.986Z,13.31
2022-10-28T22:36:25.440Z,13.34
2022-10-28T22:38:52.531Z,13.46
2022-10-28T22:41:19.122Z,13.57
2022-10-28T22:43:51.924Z,13.25
2022-10-28T22:46:18.863Z,13.41
2022-10-28T22:48:46.270Z,13.51
2022-10-28T22:51:13.482Z,13.36
2022-10-28T22:53:41.087Z,13.25
2022-10-28T22:56:11.406Z,13.21
2022-10-28T22:58:38.075Z,13.22
2022-10-28T23:01:10.565Z,13.02
2022-10-28T23:03:42.845Z,12.88
2022-10-28T23:06:11.476Z,12.85
2022-10-28T23:08:40.144Z,12.74
2022-10-28T23:11:08.040Z,12.82
2022-10-28T23:13:35.071Z,12.70
2022-10-28T23:16:07.264Z,12.74
2022-10-28T23:18:34.440Z,12.62
2022-10-28T23:21:19.067Z,12.69
2022-10-28T23:23:51.405Z,12.68
2022-10-28T23:26:21.003Z,12.58
2022-10-28T23:28:52.878Z,12.57
2022-10-28T23:31:20.796Z,12.42
2022-10-28T23:33:47.777Z,12.39
2022-10-28T23:36:15.849Z,12.49
2022-10-28T23:38:43.100Z,12.40
2022-10-28T23:41:13.937Z,12.46
2022-10-28T23:43:41.863Z,12.31
2022-10-28T23:46:09.242Z,12.36
2022-10-28T23:48:36.080Z,12.22
2022-10-28T23:51:04.614Z,12.21
2022-10-28T23:53:31.601Z,12.07
2022-10-28T23:55:58.521Z,12.10
2022-10-28T23:58:25.339Z,11.98
